sensor_id;sensor_type;location;lat;lon;timestamp;P1;durP1;ratioP1;P2;durP2;ratioP2
52964;SDS011;42923;53.220;6.528;2023-04-25T00:02:17;16.45;;;3.53;;
52964;SDS011;42923;53.220;6.528;2023-04-25T00:04:44;12.65;;;4.57;;
52964;SDS011;42923;53.220;6.528;2023-04-25T00:07:11;29.30;;;4.53;;
52964;SDS011;42923;53.220;6.528;2023-04-25T00:09:37;15.90;;;4.70;;
52964;SDS011;42923;53.220;6.528;2023-04-25T00:12:03;23.25;;;4.13;;
52964;SDS011;42923;53.220;6.528;2023-04-25T00:14:29;17.83;;;4.38;;
52964;SDS011;42923;53.220;6.528;2023-04-25T00:16:55;15.68;;;4.45;;
52964;SDS011;42923;53.220;6.528;2023-04-25T00:19:21;19.75;;;5.07;;
52964;SDS011;42923;53.220;6.528;2023-04-25T00:21:47;21.65;;;5.28;;
52964;SDS011;42923;53.220;6.528;2023-04-25T00:24:13;18.88;;;4.07;;
52964;SDS011;42923;53.220;6.528;2023-04-25T00:26:38;17.20;;;3.78;;
52964;SDS011;42923;53.220;6.528;2023-04-25T00:29:04;18.02;;;3.63;;
52964;SDS011;42923;53.220;6.528;2023-04-25T00:31:30;17.92;;;5.80;;
52964;SDS011;42923;53.220;6.528;2023-04-25T00:33:56;17.77;;;4.72;;
52964;SDS011;42923;53.220;6.528;2023-04-25T00:36:21;16.38;;;3.65;;
52964;SDS011;42923;53.220;6.528;2023-04-25T00:38:47;15.90;;;3.55;;
52964;SDS011;42923;53.220;6.528;2023-04-25T00:41:13;13.48;;;3.40;;
52964;SDS011;42923;53.220;6.528;2023-04-25T00:43:39;11.40;;;3.33;;
52964;SDS011;42923;53.220;6.528;2023-04-25T00:46:05;10.45;;;3.50;;
52964;SDS011;42923;53.220;6.528;2023-04-25T00:48:31;14.35;;;2.78;;
52964;SDS011;42923;53.220;6.528;2023-04-25T00:50:58;10.45;;;3.40;;
52964;SDS011;42923;53.220;6.528;2023-04-25T00:53:24;15.10;;;3.60;;
52964;SDS011;42923;53.220;6.528;2023-04-25T00:55:52;14.13;;;3.28;;
52964;SDS011;42923;53.220;6.528;2023-04-25T00:58:19;11.10;;;3.53;;
52964;SDS011;42923;53.220;6.528;2023-04-25T01:00:46;17.75;;;3.90;;
52964;SDS011;42923;53.220;6.528;2023-04-25T01:03:13;16.90;;;3.42;;
52964;SDS011;42923;53.220;6.528;2023-04-25T01:05:41;10.63;;;2.83;;
52964;SDS011;42923;53.220;6.528;2023-04-25T01:08:07;11.30;;;2.90;;
52964;SDS011;42923;53.220;6.528;2023-04-25T01:10:33;11.43;;;2.85;;
52964;SDS011;42923;53.220;6.528;2023-04-25T01:12:59;12.07;;;3.35;;
52964;SDS011;42923;53.220;6.528;2023-04-25T01:15:25;13.95;;;3.17;;
52964;SDS011;42923;53.220;6.528;2023-04-25T01:17:51;13.45;;;2.65;;
52964;SDS011;42923;53.220;6.528;2023-04-25T01:20:18;18.25;;;2.92;;
52964;SDS011;42923;53.220;6.528;2023-04-25T01:22:48;14.40;;;3.38;;
52964;SDS011;42923;53.220;6.528;2023-04-25T01:25:14;7.90;;;2.53;;
52964;SDS011;42923;53.220;6.528;2023-04-25T01:27:41;14.50;;;2.97;;
52964;SDS011;42923;53.220;6.528;2023-04-25T01:30:07;14.07;;;2.75;;
52964;SDS011;42923;53.220;6.528;2023-04-25T01:32:34;7.63;;;2.28;;
52964;SDS011;42923;53.220;6.528;2023-04-25T01:35:07;19.13;;;3.58;;
52964;SDS011;42923;53.220;6.528;2023-04-25T01:37:43;15.85;;;2.95;;
52964;SDS011;42923;53.220;6.528;2023-04-25T01:40:11;13.52;;;2.80;;
52964;SDS011;42923;53.220;6.528;2023-04-25T01:42:38;9.75;;;2.88;;
52964;SDS011;42923;53.220;6.528;2023-04-25T01:45:06;11.98;;;3.20;;
52964;SDS011;42923;53.220;6.528;2023-04-25T01:47:32;15.30;;;4.03;;
52964;SDS011;42923;53.220;6.528;2023-04-25T01:50:00;10.00;;;3.20;;
52964;SDS011;42923;53.220;6.528;2023-04-25T01:52:29;17.70;;;4.57;;
52964;SDS011;42923;53.220;6.528;2023-04-25T01:54:56;16.45;;;4.10;;
52964;SDS011;42923;53.220;6.528;2023-04-25T01:57:26;13.02;;;3.00;;
52964;SDS011;42923;53.220;6.528;2023-04-25T01:59:58;16.95;;;3.30;;
52964;SDS011;42923;53.220;6.528;2023-04-25T02:02:52;18.90;;;5.47;;
52964;SDS011;42923;53.220;6.528;2023-04-25T02:05:33;17.17;;;3.15;;
52964;SDS011;42923;53.220;6.528;2023-04-25T02:08:05;20.48;;;4.70;;
52964;SDS011;42923;53.220;6.528;2023-04-25T02:10:32;12.68;;;2.95;;
52964;SDS011;42923;53.220;6.528;2023-04-25T02:13:12;21.20;;;4.72;;
52964;SDS011;42923;53.220;6.528;2023-04-25T02:15:55;15.80;;;3.33;;
52964;SDS011;42923;53.220;6.528;2023-04-25T02:18:20;5.88;;;2.28;;
52964;SDS011;42923;53.220;6.528;2023-04-25T02:20:46;16.48;;;2.45;;
52964;SDS011;42923;53.220;6.528;2023-04-25T02:23:12;11.15;;;2.60;;
52964;SDS011;42923;53.220;6.528;2023-04-25T02:25:38;14.65;;;3.13;;
52964;SDS011;42923;53.220;6.528;2023-04-25T02:28:04;12.70;;;2.78;;
52964;SDS011;42923;53.220;6.528;2023-04-25T02:30:30;12.20;;;3.17;;
52964;SDS011;42923;53.220;6.528;2023-04-25T02:32:55;16.83;;;3.47;;
52964;SDS011;42923;53.220;6.528;2023-04-25T02:35:21;13.95;;;3.05;;
52964;SDS011;42923;53.220;6.528;2023-04-25T02:37:47;5.05;;;1.85;;
52964;SDS011;42923;53.220;6.528;2023-04-25T02:40:13;12.55;;;2.75;;
52964;SDS011;42923;53.220;6.528;2023-04-25T02:42:38;8.90;;;2.67;;
52964;SDS011;42923;53.220;6.528;2023-04-25T02:45:04;9.40;;;3.05;;
52964;SDS011;42923;53.220;6.528;2023-04-25T02:47:30;8.07;;;3.30;;
52964;SDS011;42923;53.220;6.528;2023-04-25T02:49:56;13.70;;;2.35;;
52964;SDS011;42923;53.220;6.528;2023-04-25T02:52:22;8.35;;;2.33;;
52964;SDS011;42923;53.220;6.528;2023-04-25T02:54:55;15.02;;;3.22;;
52964;SDS011;42923;53.220;6.528;2023-04-25T02:57:21;10.80;;;3.20;;
52964;SDS011;42923;53.220;6.528;2023-04-25T02:59:47;11.00;;;2.38;;
52964;SDS011;42923;53.220;6.528;2023-04-25T03:02:12;12.18;;;2.92;;
52964;SDS011;42923;53.220;6.528;2023-04-25T03:04:38;12.65;;;2.50;;
52964;SDS011;42923;53.220;6.528;2023-04-25T03:07:05;16.13;;;4.30;;
52964;SDS011;42923;53.220;6.528;2023-04-25T03:09:30;13.32;;;3.05;;
52964;SDS011;42923;53.220;6.528;2023-04-25T03:11:56;6.93;;;2.30;;
52964;SDS011;42923;53.220;6.528;2023-04-25T03:14:22;15.85;;;3.40;;
52964;SDS011;42923;53.220;6.528;2023-04-25T03:16:47;12.93;;;2.83;;
52964;SDS011;42923;53.220;6.528;2023-04-25T03:19:16;6.72;;;2.13;;
52964;SDS011;42923;53.220;6.528;2023-04-25T03:21:42;7.32;;;2.80;;
52964;SDS011;42923;53.220;6.528;2023-04-25T03:24:07;7.18;;;2.85;;
52964;SDS011;42923;53.220;6.528;2023-04-25T03:26:36;9.68;;;2.13;;
52964;SDS011;42923;53.220;6.528;2023-04-25T03:29:01;11.45;;;2.92;;
52964;SDS011;42923;53.220;6.528;2023-04-25T03:31:27;8.13;;;2.40;;
52964;SDS011;42923;53.220;6.528;2023-04-25T03:33:53;12.05;;;2.30;;
52964;SDS011;42923;53.220;6.528;2023-04-25T03:36:21;8.38;;;2.13;;
52964;SDS011;42923;53.220;6.528;2023-04-25T03:38:46;17.90;;;3.20;;
52964;SDS011;42923;53.220;6.528;2023-04-25T03:41:14;33.72;;;2.90;;
52964;SDS011;42923;53.220;6.528;2023-04-25T03:43:44;11.88;;;2.95;;
52964;SDS011;42923;53.220;6.528;2023-04-25T03:46:11;6.60;;;2.35;;
52964;SDS011;42923;53.220;6.528;2023-04-25T03:48:38;14.00;;;2.58;;
52964;SDS011;42923;53.220;6.528;2023-04-25T03:51:05;6.97;;;2.40;;
52964;SDS011;42923;53.220;6.528;2023-04-25T03:53:33;8.60;;;2.30;;
52964;SDS011;42923;53.220;6.528;2023-04-25T03:56:14;22.33;;;3.22;;
52964;SDS011;42923;53.220;6.528;2023-04-25T03:58:40;11.80;;;2.67;;
52964;SDS011;42923;53.220;6.528;2023-04-25T04:01:07;11.45;;;2.20;;
52964;SDS011;42923;53.220;6.528;2023-04-25T04:03:35;14.30;;;3.38;;
52964;SDS011;42923;53.220;6.528;2023-04-25T04:06:04;17.00;;;2.83;;
52964;SDS011;42923;53.220;6.528;2023-04-25T04:08:34;10.73;;;2.85;;
52964;SDS011;42923;53.220;6.528;2023-04-25T04:11:00;10.43;;;2.78;;
52964;SDS011;42923;53.220;6.528;2023-04-25T04:13:27;11.15;;;2.53;;
52964;SDS011;42923;53.220;6.528;2023-04-25T04:15:53;16.40;;;2.95;;
52964;SDS011;42923;53.220;6.528;2023-04-25T04:18:19;19.50;;;3.53;;
52964;SDS011;42923;53.220;6.528;2023-04-25T04:20:45;14.70;;;3.38;;
52964;SDS011;42923;53.220;6.528;2023-04-25T04:23:11;11.48;;;4.78;;
52964;SDS011;42923;53.220;6.528;2023-04-25T04:25:37;9.27;;;2.72;;
52964;SDS011;42923;53.220;6.528;2023-04-25T04:28:12;15.07;;;4.30;;
52964;SDS011;42923;53.220;6.528;2023-04-25T04:30:49;11.73;;;2.67;;
52964;SDS011;42923;53.220;6.528;2023-04-25T04:33:16;11.20;;;2.97;;
52964;SDS011;42923;53.220;6.528;2023-04-25T04:35:45;9.13;;;2.63;;
52964;SDS011;42923;53.220;6.528;2023-04-25T04:38:14;12.93;;;2.63;;
52964;SDS011;42923;53.220;6.528;2023-04-25T04:40:41;12.90;;;2.42;;
52964;SDS011;42923;53.220;6.528;2023-04-25T04:43:36;12.52;;;2.95;;
52964;SDS011;42923;53.220;6.528;2023-04-25T04:46:22;11.52;;;2.67;;
52964;SDS011;42923;53.220;6.528;2023-04-25T04:49:15;12.32;;;3.13;;
52964;SDS011;42923;53.220;6.528;2023-04-25T04:51:44;13.57;;;2.92;;
52964;SDS011;42923;53.220;6.528;2023-04-25T04:54:30;9.75;;;2.65;;
52964;SDS011;42923;53.220;6.528;2023-04-25T04:57:10;10.35;;;2.90;;
52964;SDS011;42923;53.220;6.528;2023-04-25T05:00:01;9.48;;;2.67;;
52964;SDS011;42923;53.220;6.528;2023-04-25T05:02:50;18.77;;;3.03;;
52964;SDS011;42923;53.220;6.528;2023-04-25T05:05:36;11.07;;;3.25;;
52964;SDS011;42923;53.220;6.528;2023-04-25T05:08:24;10.20;;;2.20;;
52964;SDS011;42923;53.220;6.528;2023-04-25T05:11:23;9.45;;;1.85;;
52964;SDS011;42923;53.220;6.528;2023-04-25T05:14:07;6.97;;;2.30;;
52964;SDS011;42923;53.220;6.528;2023-04-25T05:16:54;10.77;;;2.83;;
52964;SDS011;42923;53.220;6.528;2023-04-25T05:19:42;5.10;;;2.03;;
52964;SDS011;42923;53.220;6.528;2023-04-25T05:22:17;8.48;;;1.95;;
52964;SDS011;42923;53.220;6.528;2023-04-25T05:25:17;8.73;;;2.95;;
52964;SDS011;42923;53.220;6.528;2023-04-25T05:28:01;3.40;;;1.80;;
52964;SDS011;42923;53.220;6.528;2023-04-25T05:30:39;10.60;;;3.15;;
52964;SDS011;42923;53.220;6.528;2023-04-25T05:33:13;7.35;;;2.70;;
52964;SDS011;42923;53.220;6.528;2023-04-25T05:35:39;8.63;;;2.00;;
52964;SDS011;42923;53.220;6.528;2023-04-25T05:38:05;6.35;;;1.80;;
52964;SDS011;42923;53.220;6.528;2023-04-25T05:40:50;11.38;;;2.83;;
52964;SDS011;42923;53.220;6.528;2023-04-25T05:43:45;6.72;;;2.92;;
52964;SDS011;42923;53.220;6.528;2023-04-25T05:46:37;8.07;;;2.67;;
52964;SDS011;42923;53.220;6.528;2023-04-25T05:49:29;9.57;;;2.15;;
52964;SDS011;42923;53.220;6.528;2023-04-25T05:52:02;6.80;;;2.90;;
52964;SDS011;42923;53.220;6.528;2023-04-25T05:54:36;7.18;;;2.08;;
52964;SDS011;42923;53.220;6.528;2023-04-25T05:57:03;9.93;;;2.60;;
52964;SDS011;42923;53.220;6.528;2023-04-25T05:59:29;6.80;;;1.75;;
52964;SDS011;42923;53.220;6.528;2023-04-25T06:01:55;2.70;;;1.58;;
52964;SDS011;42923;53.220;6.528;2023-04-25T06:04:21;4.65;;;2.28;;
52964;SDS011;42923;53.220;6.528;2023-04-25T06:06:47;4.97;;;2.13;;
52964;SDS011;42923;53.220;6.528;2023-04-25T06:09:13;4.72;;;1.58;;
52964;SDS011;42923;53.220;6.528;2023-04-25T06:11:39;9.48;;;1.83;;
52964;SDS011;42923;53.220;6.528;2023-04-25T06:14:05;3.67;;;1.45;;
52964;SDS011;42923;53.220;6.528;2023-04-25T06:16:34;9.88;;;1.77;;
52964;SDS011;42923;53.220;6.528;2023-04-25T06:18:59;6.35;;;2.10;;
52964;SDS011;42923;53.220;6.528;2023-04-25T06:21:25;10.25;;;2.30;;
52964;SDS011;42923;53.220;6.528;2023-04-25T06:23:52;8.02;;;2.17;;
52964;SDS011;42923;53.220;6.528;2023-04-25T06:26:21;6.80;;;1.95;;
52964;SDS011;42923;53.220;6.528;2023-04-25T06:28:47;13.65;;;2.67;;
52964;SDS011;42923;53.220;6.528;2023-04-25T06:31:13;9.95;;;1.90;;
52964;SDS011;42923;53.220;6.528;2023-04-25T06:33:41;9.70;;;1.63;;
52964;SDS011;42923;53.220;6.528;2023-04-25T06:36:07;8.52;;;1.85;;
52964;SDS011;42923;53.220;6.528;2023-04-25T06:38:33;8.13;;;2.08;;
52964;SDS011;42923;53.220;6.528;2023-04-25T06:41:00;10.85;;;2.50;;
52964;SDS011;42923;53.220;6.528;2023-04-25T06:43:29;5.07;;;1.65;;
52964;SDS011;42923;53.220;6.528;2023-04-25T06:46:23;5.47;;;1.38;;
52964;SDS011;42923;53.220;6.528;2023-04-25T06:48:49;20.58;;;3.10;;
52964;SDS011;42923;53.220;6.528;2023-04-25T06:51:16;8.20;;;2.30;;
52964;SDS011;42923;53.220;6.528;2023-04-25T06:53:43;9.38;;;1.92;;
52964;SDS011;42923;53.220;6.528;2023-04-25T06:56:16;7.50;;;2.58;;
52964;SDS011;42923;53.220;6.528;2023-04-25T06:59:04;3.85;;;1.67;;
52964;SDS011;42923;53.220;6.528;2023-04-25T07:01:35;11.38;;;2.97;;
52964;SDS011;42923;53.220;6.528;2023-04-25T07:04:04;11.82;;;2.33;;
52964;SDS011;42923;53.220;6.528;2023-04-25T07:06:32;5.28;;;1.92;;
52964;SDS011;42923;53.220;6.528;2023-04-25T07:08:58;8.65;;;1.20;;
52964;SDS011;42923;53.220;6.528;2023-04-25T07:11:24;8.27;;;1.77;;
52964;SDS011;42923;53.220;6.528;2023-04-25T07:13:50;6.97;;;2.00;;
52964;SDS011;42923;53.220;6.528;2023-04-25T07:16:16;6.47;;;1.50;;
52964;SDS011;42923;53.220;6.528;2023-04-25T07:18:42;5.72;;;1.60;;
52964;SDS011;42923;53.220;6.528;2023-04-25T07:21:08;5.68;;;2.80;;
52964;SDS011;42923;53.220;6.528;2023-04-25T07:23:35;5.43;;;2.28;;
52964;SDS011;42923;53.220;6.528;2023-04-25T07:26:08;4.40;;;1.30;;
52964;SDS011;42923;53.220;6.528;2023-04-25T07:28:35;7.00;;;2.08;;
52964;SDS011;42923;53.220;6.528;2023-04-25T07:31:01;7.32;;;1.40;;
52964;SDS011;42923;53.220;6.528;2023-04-25T07:33:27;7.00;;;1.60;;
52964;SDS011;42923;53.220;6.528;2023-04-25T07:35:54;11.07;;;1.95;;
52964;SDS011;42923;53.220;6.528;2023-04-25T07:38:20;9.10;;;2.03;;
52964;SDS011;42923;53.220;6.528;2023-04-25T07:40:47;3.88;;;1.02;;
52964;SDS011;42923;53.220;6.528;2023-04-25T07:43:15;2.88;;;1.25;;
52964;SDS011;42923;53.220;6.528;2023-04-25T07:45:54;2.25;;;1.33;;
52964;SDS011;42923;53.220;6.528;2023-04-25T07:48:20;2.53;;;0.82;;
52964;SDS011;42923;53.220;6.528;2023-04-25T07:50:47;3.90;;;1.17;;
52964;SDS011;42923;53.220;6.528;2023-04-25T07:53:14;2.75;;;0.90;;
52964;SDS011;42923;53.220;6.528;2023-04-25T07:55:48;2.17;;;1.05;;
52964;SDS011;42923;53.220;6.528;2023-04-25T07:58:15;0.75;;;0.70;;
52964;SDS011;42923;53.220;6.528;2023-04-25T08:00:46;6.07;;;1.70;;
52964;SDS011;42923;53.220;6.528;2023-04-25T08:03:28;3.00;;;1.02;;
52964;SDS011;42923;53.220;6.528;2023-04-25T08:05:54;2.30;;;1.35;;
52964;SDS011;42923;53.220;6.528;2023-04-25T08:08:21;4.05;;;0.75;;
52964;SDS011;42923;53.220;6.528;2023-04-25T08:10:47;2.85;;;1.42;;
52964;SDS011;42923;53.220;6.528;2023-04-25T08:13:15;2.47;;;1.27;;
52964;SDS011;42923;53.220;6.528;2023-04-25T08:15:41;3.55;;;1.65;;
52964;SDS011;42923;53.220;6.528;2023-04-25T08:18:07;5.03;;;1.27;;
52964;SDS011;42923;53.220;6.528;2023-04-25T08:20:33;3.17;;;1.20;;
52964;SDS011;42923;53.220;6.528;2023-04-25T08:23:01;3.20;;;1.38;;
52964;SDS011;42923;53.220;6.528;2023-04-25T08:25:38;4.75;;;1.45;;
52964;SDS011;42923;53.220;6.528;2023-04-25T08:28:05;7.72;;;1.08;;
52964;SDS011;42923;53.220;6.528;2023-04-25T08:30:31;4.60;;;1.30;;
52964;SDS011;42923;53.220;6.528;2023-04-25T08:32:57;5.40;;;1.35;;
52964;SDS011;42923;53.220;6.528;2023-04-25T08:35:35;5.57;;;1.45;;
52964;SDS011;42923;53.220;6.528;2023-04-25T08:38:01;3.65;;;1.33;;
52964;SDS011;42923;53.220;6.528;2023-04-25T08:40:27;6.38;;;1.67;;
52964;SDS011;42923;53.220;6.528;2023-04-25T08:43:00;2.35;;;1.35;;
52964;SDS011;42923;53.220;6.528;2023-04-25T08:45:28;2.45;;;1.10;;
52964;SDS011;42923;53.220;6.528;2023-04-25T08:47:57;4.25;;;1.58;;
52964;SDS011;42923;53.220;6.528;2023-04-25T08:50:25;5.18;;;1.70;;
52964;SDS011;42923;53.220;6.528;2023-04-25T08:52:53;7.20;;;1.45;;
52964;SDS011;42923;53.220;6.528;2023-04-25T08:55:21;3.22;;;1.35;;
52964;SDS011;42923;53.220;6.528;2023-04-25T08:57:49;3.63;;;1.40;;
52964;SDS011;42923;53.220;6.528;2023-04-25T09:00:16;5.38;;;1.40;;
52964;SDS011;42923;53.220;6.528;2023-04-25T09:02:45;8.77;;;2.15;;
52964;SDS011;42923;53.220;6.528;2023-04-25T09:05:12;3.83;;;1.40;;
52964;SDS011;42923;53.220;6.528;2023-04-25T09:07:39;7.03;;;1.30;;
52964;SDS011;42923;53.220;6.528;2023-04-25T09:10:05;5.00;;;1.48;;
52964;SDS011;42923;53.220;6.528;2023-04-25T09:12:35;7.88;;;2.05;;
52964;SDS011;42923;53.220;6.528;2023-04-25T09:17:44;8.55;;;2.28;;
52964;SDS011;42923;53.220;6.528;2023-04-25T09:20:12;2.72;;;1.23;;
52964;SDS011;42923;53.220;6.528;2023-04-25T09:22:39;7.30;;;1.67;;
52964;SDS011;42923;53.220;6.528;2023-04-25T09:25:08;5.47;;;1.80;;
52964;SDS011;42923;53.220;6.528;2023-04-25T09:27:36;4.30;;;1.77;;
52964;SDS011;42923;53.220;6.528;2023-04-25T09:30:29;4.63;;;1.27;;
52964;SDS011;42923;53.220;6.528;2023-04-25T09:33:16;6.70;;;1.60;;
52964;SDS011;42923;53.220;6.528;2023-04-25T09:35:47;7.32;;;2.25;;
52964;SDS011;42923;53.220;6.528;2023-04-25T09:38:26;7.15;;;2.03;;
52964;SDS011;42923;53.220;6.528;2023-04-25T09:40:58;6.75;;;1.92;;
52964;SDS011;42923;53.220;6.528;2023-04-25T09:43:39;7.53;;;1.63;;
52964;SDS011;42923;53.220;6.528;2023-04-25T09:46:08;8.05;;;1.85;;
52964;SDS011;42923;53.220;6.528;2023-04-25T09:48:38;14.13;;;2.45;;
52964;SDS011;42923;53.220;6.528;2023-04-25T09:51:11;12.90;;;2.17;;
52964;SDS011;42923;53.220;6.528;2023-04-25T09:53:44;5.45;;;1.60;;
52964;SDS011;42923;53.220;6.528;2023-04-25T09:56:32;6.90;;;1.98;;
52964;SDS011;42923;53.220;6.528;2023-04-25T09:59:03;4.35;;;1.60;;
52964;SDS011;42923;53.220;6.528;2023-04-25T10:01:32;8.60;;;1.65;;
52964;SDS011;42923;53.220;6.528;2023-04-25T10:04:09;9.45;;;2.25;;
52964;SDS011;42923;53.220;6.528;2023-04-25T10:06:39;14.57;;;2.35;;
52964;SDS011;42923;53.220;6.528;2023-04-25T10:09:08;3.50;;;1.17;;
52964;SDS011;42923;53.220;6.528;2023-04-25T10:11:34;10.57;;;2.10;;
52964;SDS011;42923;53.220;6.528;2023-04-25T10:14:00;6.00;;;1.88;;
52964;SDS011;42923;53.220;6.528;2023-04-25T10:16:27;11.30;;;2.00;;
52964;SDS011;42923;53.220;6.528;2023-04-25T10:18:53;7.50;;;1.70;;
52964;SDS011;42923;53.220;6.528;2023-04-25T10:21:20;10.70;;;2.40;;
52964;SDS011;42923;53.220;6.528;2023-04-25T10:23:47;5.97;;;2.15;;
52964;SDS011;42923;53.220;6.528;2023-04-25T10:26:14;12.55;;;2.78;;
52964;SDS011;42923;53.220;6.528;2023-04-25T10:28:56;5.43;;;1.83;;
52964;SDS011;42923;53.220;6.528;2023-04-25T10:31:23;11.35;;;2.03;;
52964;SDS011;42923;53.220;6.528;2023-04-25T10:33:49;12.85;;;3.22;;
52964;SDS011;42923;53.220;6.528;2023-04-25T10:36:15;4.40;;;1.73;;
52964;SDS011;42923;53.220;6.528;2023-04-25T10:38:44;9.40;;;2.25;;
52964;SDS011;42923;53.220;6.528;2023-04-25T10:41:11;3.10;;;1.65;;
52964;SDS011;42923;53.220;6.528;2023-04-25T10:46:23;5.57;;;1.80;;
52964;SDS011;42923;53.220;6.528;2023-04-25T10:48:54;7.60;;;1.77;;
52964;SDS011;42923;53.220;6.528;2023-04-25T10:51:25;6.28;;;2.03;;
52964;SDS011;42923;53.220;6.528;2023-04-25T10:53:56;7.30;;;1.92;;
52964;SDS011;42923;53.220;6.528;2023-04-25T10:56:30;2.72;;;1.45;;
52964;SDS011;42923;53.220;6.528;2023-04-25T11:01:39;6.68;;;2.00;;
52964;SDS011;42923;53.220;6.528;2023-04-25T11:04:19;2.58;;;1.48;;
52964;SDS011;42923;53.220;6.528;2023-04-25T11:07:23;7.20;;;1.50;;
52964;SDS011;42923;53.220;6.528;2023-04-25T11:09:56;6.53;;;1.20;;
52964;SDS011;42923;53.220;6.528;2023-04-25T11:12:22;8.63;;;1.27;;
52964;SDS011;42923;53.220;6.528;2023-04-25T11:14:50;13.77;;;1.55;;
52964;SDS011;42923;53.220;6.528;2023-04-25T11:17:15;3.85;;;1.77;;
52964;SDS011;42923;53.220;6.528;2023-04-25T11:19:41;8.07;;;1.15;;
52964;SDS011;42923;53.220;6.528;2023-04-25T11:22:07;2.83;;;1.63;;
52964;SDS011;42923;53.220;6.528;2023-04-25T11:24:33;5.30;;;1.52;;
52964;SDS011;42923;53.220;6.528;2023-04-25T11:27:00;4.38;;;1.50;;
52964;SDS011;42923;53.220;6.528;2023-04-25T11:29:31;3.15;;;1.55;;
52964;SDS011;42923;53.220;6.528;2023-04-25T11:31:58;5.78;;;1.63;;
52964;SDS011;42923;53.220;6.528;2023-04-25T11:34:26;9.80;;;1.70;;
52964;SDS011;42923;53.220;6.528;2023-04-25T11:36:55;7.00;;;1.48;;
52964;SDS011;42923;53.220;6.528;2023-04-25T11:39:21;4.78;;;1.35;;
52964;SDS011;42923;53.220;6.528;2023-04-25T11:41:48;5.53;;;1.30;;
52964;SDS011;42923;53.220;6.528;2023-04-25T11:44:15;5.80;;;1.75;;
52964;SDS011;42923;53.220;6.528;2023-04-25T11:46:42;5.72;;;1.30;;
52964;SDS011;42923;53.220;6.528;2023-04-25T11:49:08;4.22;;;1.30;;
52964;SDS011;42923;53.220;6.528;2023-04-25T11:51:40;5.07;;;1.48;;
52964;SDS011;42923;53.220;6.528;2023-04-25T11:54:10;3.22;;;1.52;;
52964;SDS011;42923;53.220;6.528;2023-04-25T11:56:36;5.00;;;1.95;;
52964;SDS011;42923;53.220;6.528;2023-04-25T11:59:05;8.52;;;1.70;;
52964;SDS011;42923;53.220;6.528;2023-04-25T12:01:32;16.67;;;1.63;;
52964;SDS011;42923;53.220;6.528;2023-04-25T12:04:11;5.40;;;1.55;;
52964;SDS011;42923;53.220;6.528;2023-04-25T12:06:37;3.03;;;1.77;;
52964;SDS011;42923;53.220;6.528;2023-04-25T12:09:07;2.08;;;1.67;;
52964;SDS011;42923;53.220;6.528;2023-04-25T12:11:47;4.95;;;1.67;;
52964;SDS011;42923;53.220;6.528;2023-04-25T12:14:23;6.80;;;1.27;;
52964;SDS011;42923;53.220;6.528;2023-04-25T12:16:55;11.50;;;2.30;;
52964;SDS011;42923;53.220;6.528;2023-04-25T12:19:22;8.15;;;2.22;;
52964;SDS011;42923;53.220;6.528;2023-04-25T12:21:49;3.60;;;1.40;;
52964;SDS011;42923;53.220;6.528;2023-04-25T12:24:16;3.42;;;1.10;;
52964;SDS011;42923;53.220;6.528;2023-04-25T12:26:54;7.13;;;1.33;;
52964;SDS011;42923;53.220;6.528;2023-04-25T12:29:31;5.75;;;1.90;;
52964;SDS011;42923;53.220;6.528;2023-04-25T12:31:58;9.40;;;2.08;;
52964;SDS011;42923;53.220;6.528;2023-04-25T12:34:26;1.65;;;1.15;;
52964;SDS011;42923;53.220;6.528;2023-04-25T12:36:53;6.93;;;1.60;;
52964;SDS011;42923;53.220;6.528;2023-04-25T12:39:20;2.80;;;1.58;;
52964;SDS011;42923;53.220;6.528;2023-04-25T12:41:48;7.00;;;1.38;;
52964;SDS011;42923;53.220;6.528;2023-04-25T12:44:15;1.80;;;1.33;;
52964;SDS011;42923;53.220;6.528;2023-04-25T12:46:41;3.55;;;1.30;;
52964;SDS011;42923;53.220;6.528;2023-04-25T12:49:07;5.30;;;1.77;;
52964;SDS011;42923;53.220;6.528;2023-04-25T12:51:34;6.80;;;1.88;;
52964;SDS011;42923;53.220;6.528;2023-04-25T12:54:00;4.68;;;1.95;;
52964;SDS011;42923;53.220;6.528;2023-04-25T12:56:28;3.05;;;1.63;;
52964;SDS011;42923;53.220;6.528;2023-04-25T12:58:54;4.93;;;1.20;;
52964;SDS011;42923;53.220;6.528;2023-04-25T13:01:20;13.30;;;2.00;;
52964;SDS011;42923;53.220;6.528;2023-04-25T13:03:46;5.13;;;1.63;;
52964;SDS011;42923;53.220;6.528;2023-04-25T13:06:14;9.27;;;2.15;;
52964;SDS011;42923;53.220;6.528;2023-04-25T13:08:40;5.40;;;1.67;;
52964;SDS011;42923;53.220;6.528;2023-04-25T13:11:07;3.00;;;1.30;;
52964;SDS011;42923;53.220;6.528;2023-04-25T13:13:33;6.50;;;1.58;;
52964;SDS011;42923;53.220;6.528;2023-04-25T13:16:02;7.15;;;1.60;;
52964;SDS011;42923;53.220;6.528;2023-04-25T13:18:29;9.07;;;1.90;;
52964;SDS011;42923;53.220;6.528;2023-04-25T13:20:56;6.32;;;1.60;;
52964;SDS011;42923;53.220;6.528;2023-04-25T13:23:22;3.15;;;1.73;;
52964;SDS011;42923;53.220;6.528;2023-04-25T13:25:50;6.07;;;1.83;;
52964;SDS011;42923;53.220;6.528;2023-04-25T13:28:15;5.70;;;2.10;;
52964;SDS011;42923;53.220;6.528;2023-04-25T13:30:41;9.80;;;2.40;;
52964;SDS011;42923;53.220;6.528;2023-04-25T13:33:07;8.43;;;2.55;;
52964;SDS011;42923;53.220;6.528;2023-04-25T13:35:34;2.40;;;1.48;;
52964;SDS011;42923;53.220;6.528;2023-04-25T13:38:00;3.40;;;1.70;;
52964;SDS011;42923;53.220;6.528;2023-04-25T13:40:27;8.85;;;2.13;;
52964;SDS011;42923;53.220;6.528;2023-04-25T13:42:53;6.57;;;1.98;;
52964;SDS011;42923;53.220;6.528;2023-04-25T13:45:19;5.18;;;2.00;;
52964;SDS011;42923;53.220;6.528;2023-04-25T13:47:45;2.53;;;1.45;;
52964;SDS011;42923;53.220;6.528;2023-04-25T13:50:11;3.42;;;0.82;;
52964;SDS011;42923;53.220;6.528;2023-04-25T13:52:38;4.32;;;1.13;;
52964;SDS011;42923;53.220;6.528;2023-04-25T13:55:05;3.30;;;1.40;;
52964;SDS011;42923;53.220;6.528;2023-04-25T13:57:32;2.85;;;1.33;;
52964;SDS011;42923;53.220;6.528;2023-04-25T13:59:59;17.00;;;2.60;;
52964;SDS011;42923;53.220;6.528;2023-04-25T14:02:31;2.88;;;1.38;;
52964;SDS011;42923;53.220;6.528;2023-04-25T14:04:57;8.45;;;1.63;;
52964;SDS011;42923;53.220;6.528;2023-04-25T14:07:23;6.28;;;1.77;;
52964;SDS011;42923;53.220;6.528;2023-04-25T14:09:49;7.38;;;2.25;;
52964;SDS011;42923;53.220;6.528;2023-04-25T14:12:15;11.80;;;1.95;;
52964;SDS011;42923;53.220;6.528;2023-04-25T14:14:41;7.78;;;1.42;;
52964;SDS011;42923;53.220;6.528;2023-04-25T14:17:08;7.43;;;1.83;;
52964;SDS011;42923;53.220;6.528;2023-04-25T14:19:34;16.35;;;3.30;;
52964;SDS011;42923;53.220;6.528;2023-04-25T14:21:59;5.30;;;1.13;;
52964;SDS011;42923;53.220;6.528;2023-04-25T14:24:25;5.03;;;1.40;;
52964;SDS011;42923;53.220;6.528;2023-04-25T14:26:51;9.05;;;2.30;;
52964;SDS011;42923;53.220;6.528;2023-04-25T14:29:17;5.30;;;1.80;;
52964;SDS011;42923;53.220;6.528;2023-04-25T14:31:42;7.20;;;1.50;;
52964;SDS011;42923;53.220;6.528;2023-04-25T14:34:08;6.93;;;2.30;;
52964;SDS011;42923;53.220;6.528;2023-04-25T14:36:35;1.95;;;0.90;;
52964;SDS011;42923;53.220;6.528;2023-04-25T14:39:01;1.23;;;1.00;;
52964;SDS011;42923;53.220;6.528;2023-04-25T14:41:27;2.85;;;1.05;;
52964;SDS011;42923;53.220;6.528;2023-04-25T14:43:52;3.15;;;1.38;;
52964;SDS011;42923;53.220;6.528;2023-04-25T14:46:18;6.80;;;2.13;;
52964;SDS011;42923;53.220;6.528;2023-04-25T14:48:45;5.50;;;2.20;;
52964;SDS011;42923;53.220;6.528;2023-04-25T14:51:12;8.35;;;1.92;;
52964;SDS011;42923;53.220;6.528;2023-04-25T14:53:37;6.10;;;1.63;;
52964;SDS011;42923;53.220;6.528;2023-04-25T14:56:04;5.57;;;1.98;;
52964;SDS011;42923;53.220;6.528;2023-04-25T14:58:30;5.05;;;1.00;;
52964;SDS011;42923;53.220;6.528;2023-04-25T15:00:56;3.45;;;1.55;;
52964;SDS011;42923;53.220;6.528;2023-04-25T15:03:22;7.13;;;1.58;;
52964;SDS011;42923;53.220;6.528;2023-04-25T15:05:48;8.57;;;1.77;;